sensor_id;sensor_type;location;lat;lon;timestamp;pressure;altitude;pressure_sealevel;temperature;humidity
52927;BME280;40783;49.710;8.842;2022-07-23T00:01:35;99001.03;;;20.66;94.60
52927;BME280;40783;49.710;8.842;2022-07-23T00:04:00;99001.50;;;20.63;93.73
52927;BME280;40783;49.710;8.842;2022-07-23T00:06:28;98988.13;;;20.61;92.97
52927;BME280;40783;49.710;8.842;2022-07-23T00:08:53;98996.50;;;20.59;93.60
52927;BME280;40783;49.710;8.842;2022-07-23T00:11:19;98986.69;;;20.58;93.78
52927;BME280;40783;49.710;8.842;2022-07-23T00:13:47;98986.75;;;20.70;92.37
52927;BME280;40783;49.710;8.842;2022-07-23T00:16:12;98987.22;;;20.67;92.65
52927;BME280;40783;49.710;8.842;2022-07-23T00:18:40;98992.75;;;20.60;94.02
52927;BME280;40783;49.710;8.842;2022-07-23T00:21:06;99000.19;;;20.65;94.56
52927;BME280;40783;49.710;8.842;2022-07-23T00:23:34;99001.94;;;20.59;95.50
52927;BME280;40783;49.710;8.842;2022-07-23T00:26:02;99000.44;;;20.64;95.25
52927;BME280;40783;49.710;8.842;2022-07-23T00:28:27;99006.91;;;20.63;94.16
52927;BME280;40783;49.710;8.842;2022-07-23T00:30:55;99009.84;;;20.61;94.17
52927;BME280;40783;49.710;8.842;2022-07-23T00:33:20;99013.88;;;20.58;93.48
52927;BME280;40783;49.710;8.842;2022-07-23T00:35:46;99011.59;;;20.55;95.46
52927;BME280;40783;49.710;8.842;2022-07-23T00:38:11;98994.69;;;20.53;95.25
52927;BME280;40783;49.710;8.842;2022-07-23T00:40:39;98984.25;;;20.69;93.74
52927;BME280;40783;49.710;8.842;2022-07-23T00:43:05;98985.78;;;20.83;91.86
52927;BME280;40783;49.710;8.842;2022-07-23T00:45:30;98970.59;;;20.75;93.71
52927;BME280;40783;49.710;8.842;2022-07-23T00:47:58;98959.94;;;20.74;94.41
52927;BME280;40783;49.710;8.842;2022-07-23T00:50:27;98962.16;;;20.65;95.52
52927;BME280;40783;49.710;8.842;2022-07-23T00:52:55;98968.44;;;20.66;94.57
52927;BME280;40783;49.710;8.842;2022-07-23T00:55:21;98959.69;;;20.64;95.34
52927;BME280;40783;49.710;8.842;2022-07-23T00:57:50;98961.03;;;20.54;94.72
52927;BME280;40783;49.710;8.842;2022-07-23T01:00:18;98961.13;;;20.48;95.22
52927;BME280;40783;49.710;8.842;2022-07-23T01:02:49;98969.50;;;20.27;98.23
52927;BME280;40783;49.710;8.842;2022-07-23T01:05:15;98975.38;;;20.24;96.14
52927;BME280;40783;49.710;8.842;2022-07-23T01:07:40;98959.38;;;20.16;97.25
52927;BME280;40783;49.710;8.842;2022-07-23T01:10:06;98957.38;;;20.11;95.70
52927;BME280;40783;49.710;8.842;2022-07-23T01:12:52;98956.47;;;20.17;94.60
52927;BME280;40783;49.710;8.842;2022-07-23T01:15:21;98969.78;;;20.19;95.30
52927;BME280;40783;49.710;8.842;2022-07-23T01:17:49;98976.06;;;20.20;98.04
52927;BME280;40783;49.710;8.842;2022-07-23T01:20:15;98980.97;;;20.11;99.31
52927;BME280;40783;49.710;8.842;2022-07-23T01:22:45;98975.31;;;20.12;99.62
52927;BME280;40783;49.710;8.842;2022-07-23T01:25:11;98973.66;;;20.11;99.96
52927;BME280;40783;49.710;8.842;2022-07-23T01:27:36;98966.47;;;20.17;97.59
52927;BME280;40783;49.710;8.842;2022-07-23T01:30:03;98977.34;;;20.17;97.49
52927;BME280;40783;49.710;8.842;2022-07-23T01:32:31;98987.28;;;20.23;97.61
52927;BME280;40783;49.710;8.842;2022-07-23T01:35:01;98985.63;;;20.22;98.52
52927;BME280;40783;49.710;8.842;2022-07-23T01:37:26;99002.81;;;20.16;98.45
52927;BME280;40783;49.710;8.842;2022-07-23T01:39:52;98986.41;;;20.11;96.72
52927;BME280;40783;49.710;8.842;2022-07-23T01:42:20;98989.94;;;20.11;96.18
52927;BME280;40783;49.710;8.842;2022-07-23T01:44:47;98984.06;;;20.14;93.98
52927;BME280;40783;49.710;8.842;2022-07-23T01:47:13;98990.31;;;20.15;93.17
52927;BME280;40783;49.710;8.842;2022-07-23T01:49:38;98987.75;;;20.20;92.54
52927;BME280;40783;49.710;8.842;2022-07-23T01:52:04;98993.25;;;20.13;92.78
52927;BME280;40783;49.710;8.842;2022-07-23T01:54:33;98997.41;;;20.16;92.54
52927;BME280;40783;49.710;8.842;2022-07-23T01:56:59;98991.97;;;20.16;92.13
52927;BME280;40783;49.710;8.842;2022-07-23T01:59:26;98968.13;;;20.18;91.44
52927;BME280;40783;49.710;8.842;2022-07-23T02:01:54;98971.47;;;20.20;91.03
52927;BME280;40783;49.710;8.842;2022-07-23T02:04:20;98991.97;;;20.16;92.64
52927;BME280;40783;49.710;8.842;2022-07-23T02:06:46;99001.56;;;20.19;93.73
52927;BME280;40783;49.710;8.842;2022-07-23T02:09:12;99002.53;;;20.06;94.14
52927;BME280;40783;49.710;8.842;2022-07-23T02:11:38;99002.06;;;19.90;93.57
52927;BME280;40783;49.710;8.842;2022-07-23T02:14:03;99015.63;;;19.90;93.39
52927;BME280;40783;49.710;8.842;2022-07-23T02:16:34;99013.44;;;19.73;94.18
52927;BME280;40783;49.710;8.842;2022-07-23T02:18:59;99004.06;;;19.69;94.60
52927;BME280;40783;49.710;8.842;2022-07-23T02:21:27;98995.31;;;19.67;94.69
52927;BME280;40783;49.710;8.842;2022-07-23T02:23:52;98984.78;;;19.59;94.67
52927;BME280;40783;49.710;8.842;2022-07-23T02:26:20;98983.75;;;19.53;94.73
52927;BME280;40783;49.710;8.842;2022-07-23T02:28:45;98980.88;;;19.48;95.47
52927;BME280;40783;49.710;8.842;2022-07-23T02:31:10;99000.97;;;19.40;96.51
52927;BME280;40783;49.710;8.842;2022-07-23T02:33:36;99005.97;;;19.43;96.39
52927;BME280;40783;49.710;8.842;2022-07-23T02:36:01;99002.88;;;19.33;97.92
52927;BME280;40783;49.710;8.842;2022-07-23T02:38:27;99002.47;;;19.36;97.39
52927;BME280;40783;49.710;8.842;2022-07-23T02:40:52;99015.06;;;19.49;94.89
52927;BME280;40783;49.710;8.842;2022-07-23T02:43:17;99014.69;;;19.46;96.08
52927;BME280;40783;49.710;8.842;2022-07-23T02:45:42;99006.28;;;19.54;95.45
52927;BME280;40783;49.710;8.842;2022-07-23T02:48:08;99009.22;;;19.52;94.33
52927;BME280;40783;49.710;8.842;2022-07-23T02:50:33;99016.72;;;19.57;93.43
52927;BME280;40783;49.710;8.842;2022-07-23T02:52:58;99015.06;;;19.49;93.32
52927;BME280;40783;49.710;8.842;2022-07-23T02:55:24;99034.72;;;19.45;93.42
52927;BME280;40783;49.710;8.842;2022-07-23T02:57:49;99026.38;;;19.46;93.66
52927;BME280;40783;49.710;8.842;2022-07-23T03:00:17;99028.03;;;19.47;93.57
52927;BME280;40783;49.710;8.842;2022-07-23T03:02:42;99019.69;;;19.49;93.70
52927;BME280;40783;49.710;8.842;2022-07-23T03:05:10;99021.19;;;19.45;94.02
52927;BME280;40783;49.710;8.842;2022-07-23T03:07:38;99023.38;;;19.54;93.63
52927;BME280;40783;49.710;8.842;2022-07-23T03:10:03;99007.63;;;19.45;96.37
52927;BME280;40783;49.710;8.842;2022-07-23T03:12:31;99005.06;;;19.50;96.38
52927;BME280;40783;49.710;8.842;2022-07-23T03:14:59;99015.13;;;19.42;97.04
52927;BME280;40783;49.710;8.842;2022-07-23T03:17:29;99016.00;;;19.36;97.56
52927;BME280;40783;49.710;8.842;2022-07-23T03:19:55;99026.50;;;19.26;98.67
52927;BME280;40783;49.710;8.842;2022-07-23T03:22:20;99031.75;;;19.21;98.33
52927;BME280;40783;49.710;8.842;2022-07-23T03:24:45;99040.31;;;19.18;98.44
52927;BME280;40783;49.710;8.842;2022-07-23T03:27:23;99050.53;;;19.16;98.00
52927;BME280;40783;49.710;8.842;2022-07-23T03:29:50;99038.03;;;19.15;98.28
52927;BME280;40783;49.710;8.842;2022-07-23T03:32:16;99056.56;;;19.18;98.53
52927;BME280;40783;49.710;8.842;2022-07-23T03:34:41;99054.47;;;19.20;98.03
52927;BME280;40783;49.710;8.842;2022-07-23T03:37:07;99039.75;;;19.09;99.59
52927;BME280;40783;49.710;8.842;2022-07-23T03:39:34;99041.59;;;19.15;98.91
52927;BME280;40783;49.710;8.842;2022-07-23T03:42:00;99059.47;;;19.23;98.46
52927;BME280;40783;49.710;8.842;2022-07-23T03:44:25;99051.59;;;19.15;98.11
52927;BME280;40783;49.710;8.842;2022-07-23T03:46:53;99058.66;;;19.16;97.59
52927;BME280;40783;49.710;8.842;2022-07-23T03:49:18;99068.66;;;19.22;97.70
52927;BME280;40783;49.710;8.842;2022-07-23T03:51:43;99067.41;;;19.18;97.87
52927;BME280;40783;49.710;8.842;2022-07-23T03:54:09;99061.19;;;19.17;97.27
52927;BME280;40783;49.710;8.842;2022-07-23T03:56:34;99074.94;;;19.16;98.03
52927;BME280;40783;49.710;8.842;2022-07-23T03:59:00;99077.03;;;19.13;97.72
52927;BME280;40783;49.710;8.842;2022-07-23T04:01:25;99075.78;;;19.09;97.96
52927;BME280;40783;49.710;8.842;2022-07-23T04:03:56;99064.13;;;19.09;98.96
52927;BME280;40783;49.710;8.842;2022-07-23T04:06:21;99091.44;;;19.14;98.11
52927;BME280;40783;49.710;8.842;2022-07-23T04:08:47;99072.41;;;19.21;98.14
52927;BME280;40783;49.710;8.842;2022-07-23T04:11:12;99066.81;;;19.16;99.09
52927;BME280;40783;49.710;8.842;2022-07-23T04:13:38;99064.38;;;19.07;99.60
52927;BME280;40783;49.710;8.842;2022-07-23T04:16:03;99066.22;;;19.07;99.93
52927;BME280;40783;49.710;8.842;2022-07-23T04:18:31;99077.94;;;19.01;100.00
52927;BME280;40783;49.710;8.842;2022-07-23T04:20:59;99060.84;;;19.00;100.00
52927;BME280;40783;49.710;8.842;2022-07-23T04:23:24;99052.50;;;18.95;100.00
52927;BME280;40783;49.710;8.842;2022-07-23T04:25:50;99056.06;;;18.89;100.00
52927;BME280;40783;49.710;8.842;2022-07-23T04:28:15;99060.00;;;18.93;100.00
52927;BME280;40783;49.710;8.842;2022-07-23T04:30:43;99076.28;;;18.86;100.00
52927;BME280;40783;49.710;8.842;2022-07-23T04:33:08;99079.22;;;18.84;100.00
52927;BME280;40783;49.710;8.842;2022-07-23T04:35:34;99086.75;;;18.76;100.00
52927;BME280;40783;49.710;8.842;2022-07-23T04:37:59;99090.69;;;18.87;100.00
52927;BME280;40783;49.710;8.842;2022-07-23T04:40:25;99087.13;;;18.93;100.00
52927;BME280;40783;49.710;8.842;2022-07-23T04:42:51;99089.19;;;18.91;100.00
52927;BME280;40783;49.710;8.842;2022-07-23T04:45:16;99102.56;;;18.86;100.00
52927;BME280;40783;49.710;8.842;2022-07-23T04:47:41;99115.09;;;18.80;100.00
52927;BME280;40783;49.710;8.842;2022-07-23T04:50:07;99111.72;;;18.84;100.00
52927;BME280;40783;49.710;8.842;2022-07-23T04:52:34;99134.66;;;18.89;100.00
52927;BME280;40783;49.710;8.842;2022-07-23T04:54:59;99148.81;;;18.97;100.00
52927;BME280;40783;49.710;8.842;2022-07-23T04:57:25;99150.47;;;19.05;100.00
52927;BME280;40783;49.710;8.842;2022-07-23T04:59:53;99149.03;;;18.96;100.00
52927;BME280;40783;49.710;8.842;2022-07-23T05:02:20;99149.63;;;18.91;100.00
52927;BME280;40783;49.710;8.842;2022-07-23T05:04:48;99155.06;;;18.98;100.00
52927;BME280;40783;49.710;8.842;2022-07-23T05:07:16;99168.81;;;18.96;100.00
52927;BME280;40783;49.710;8.842;2022-07-23T05:09:41;99161.75;;;18.89;100.00
52927;BME280;40783;49.710;8.842;2022-07-23T05:12:07;99150.72;;;18.70;100.00
52927;BME280;40783;49.710;8.842;2022-07-23T05:14:32;99137.59;;;18.80;100.00
52927;BME280;40783;49.710;8.842;2022-07-23T05:17:00;99125.03;;;18.86;100.00
52927;BME280;40783;49.710;8.842;2022-07-23T05:19:25;99133.44;;;18.71;100.00
52927;BME280;40783;49.710;8.842;2022-07-23T05:21:53;99132.59;;;18.64;100.00
52927;BME280;40783;49.710;8.842;2022-07-23T05:24:19;99151.56;;;18.64;100.00
52927;BME280;40783;49.710;8.842;2022-07-23T05:26:46;99159.69;;;18.64;100.00
52927;BME280;40783;49.710;8.842;2022-07-23T05:29:12;99152.84;;;18.54;100.00
52927;BME280;40783;49.710;8.842;2022-07-23T05:31:40;99158.03;;;18.63;100.00
52927;BME280;40783;49.710;8.842;2022-07-23T05:34:07;99158.88;;;18.57;100.00
52927;BME280;40783;49.710;8.842;2022-07-23T05:36:33;99168.03;;;18.69;100.00
52927;BME280;40783;49.710;8.842;2022-07-23T05:39:02;99190.09;;;18.79;100.00
52927;BME280;40783;49.710;8.842;2022-07-23T05:41:28;99190.31;;;18.84;100.00
52927;BME280;40783;49.710;8.842;2022-07-23T05:43:53;99199.06;;;18.73;100.00
52927;BME280;40783;49.710;8.842;2022-07-23T05:46:19;99198.03;;;18.74;100.00
52927;BME280;40783;49.710;8.842;2022-07-23T05:48:44;99197.19;;;18.74;100.00
52927;BME280;40783;49.710;8.842;2022-07-23T05:51:19;99193.03;;;18.71;100.00
52927;BME280;40783;49.710;8.842;2022-07-23T05:53:47;99191.56;;;18.62;100.00
52927;BME280;40783;49.710;8.842;2022-07-23T05:56:13;99192.63;;;18.61;100.00
52927;BME280;40783;49.710;8.842;2022-07-23T05:58:38;99188.44;;;18.65;100.00
52927;BME280;40783;49.710;8.842;2022-07-23T06:01:07;99186.78;;;18.64;100.00
52927;BME280;40783;49.710;8.842;2022-07-23T06:03:32;99176.38;;;18.61;100.00
52927;BME280;40783;49.710;8.842;2022-07-23T06:05:57;99171.56;;;18.63;100.00
52927;BME280;40783;49.710;8.842;2022-07-23T06:08:23;99173.03;;;18.59;100.00
52927;BME280;40783;49.710;8.842;2022-07-23T06:10:48;99165.53;;;18.61;100.00
52927;BME280;40783;49.710;8.842;2022-07-23T06:13:17;99154.69;;;18.61;100.00
52927;BME280;40783;49.710;8.842;2022-07-23T06:15:45;99160.53;;;18.58;100.00
52927;BME280;40783;49.710;8.842;2022-07-23T06:18:13;99163.47;;;18.49;100.00
52927;BME280;40783;49.710;8.842;2022-07-23T06:20:41;99166.19;;;18.49;100.00
52927;BME280;40783;49.710;8.842;2022-07-23T06:23:11;99159.31;;;18.53;100.00
52927;BME280;40783;49.710;8.842;2022-07-23T06:25:38;99148.66;;;18.59;100.00
52927;BME280;40783;49.710;8.842;2022-07-23T06:28:06;99145.94;;;18.59;100.00
52927;BME280;40783;49.710;8.842;2022-07-23T06:30:32;99135.53;;;18.62;100.00
52927;BME280;40783;49.710;8.842;2022-07-23T06:33:00;99138.06;;;18.57;100.00
52927;BME280;40783;49.710;8.842;2022-07-23T06:35:25;99143.84;;;18.74;100.00
52927;BME280;40783;49.710;8.842;2022-07-23T06:37:56;99152.50;;;19.17;100.00
52927;BME280;40783;49.710;8.842;2022-07-23T06:40:22;99150.59;;;20.52;100.00
52927;BME280;40783;49.710;8.842;2022-07-23T06:42:47;99161.28;;;20.47;97.63
52927;BME280;40783;49.710;8.842;2022-07-23T06:45:22;99163.72;;;20.55;96.41
52927;BME280;40783;49.710;8.842;2022-07-23T06:47:48;99178.81;;;20.95;94.26
52927;BME280;40783;49.710;8.842;2022-07-23T06:50:13;99173.38;;;20.51;94.75
52927;BME280;40783;49.710;8.842;2022-07-23T06:52:39;99179.25;;;20.48;95.01
52927;BME280;40783;49.710;8.842;2022-07-23T06:55:04;99189.84;;;20.75;93.98
52927;BME280;40783;49.710;8.842;2022-07-23T06:57:30;99195.56;;;20.48;96.34
52927;BME280;40783;49.710;8.842;2022-07-23T06:59:55;99195.22;;;20.38;95.25
52927;BME280;40783;49.710;8.842;2022-07-23T07:02:20;99198.09;;;20.43;95.70
52927;BME280;40783;49.710;8.842;2022-07-23T07:04:46;99201.44;;;20.45;95.52
52927;BME280;40783;49.710;8.842;2022-07-23T07:07:13;99203.97;;;20.40;96.31
52927;BME280;40783;49.710;8.842;2022-07-23T07:09:39;99207.00;;;21.01;93.69
52927;BME280;40783;49.710;8.842;2022-07-23T07:12:04;99222.47;;;21.00;94.84
52927;BME280;40783;49.710;8.842;2022-07-23T07:14:30;99227.69;;;21.39;92.53
52927;BME280;40783;49.710;8.842;2022-07-23T07:16:55;99217.56;;;21.46;93.14
52927;BME280;40783;49.710;8.842;2022-07-23T07:19:23;99237.09;;;22.35;86.80
52927;BME280;40783;49.710;8.842;2022-07-23T07:21:48;99232.75;;;24.11;76.27
52927;BME280;40783;49.710;8.842;2022-07-23T07:24:14;99235.41;;;23.65;76.52
52927;BME280;40783;49.710;8.842;2022-07-23T07:26:39;99226.63;;;22.50;82.35
52927;BME280;40783;49.710;8.842;2022-07-23T07:29:07;99219.97;;;21.55;86.74
52927;BME280;40783;49.710;8.842;2022-07-23T07:31:34;99224.50;;;21.42;88.47
52927;BME280;40783;49.710;8.842;2022-07-23T07:34:02;99230.91;;;21.48;89.41
52927;BME280;40783;49.710;8.842;2022-07-23T07:36:28;99228.28;;;21.23;90.81
52927;BME280;40783;49.710;8.842;2022-07-23T07:38:57;99231.75;;;21.30;90.53
52927;BME280;40783;49.710;8.842;2022-07-23T07:41:22;99240.97;;;21.47;88.81
52927;BME280;40783;49.710;8.842;2022-07-23T07:43:51;99241.88;;;21.41;88.00
52927;BME280;40783;49.710;8.842;2022-07-23T07:46:19;99247.88;;;21.31;89.99
52927;BME280;40783;49.710;8.842;2022-07-23T07:48:50;99246.50;;;21.41;90.49
52927;BME280;40783;49.710;8.842;2022-07-23T07:51:16;99243.84;;;21.34;89.32
52927;BME280;40783;49.710;8.842;2022-07-23T07:53:45;99246.34;;;21.54;89.23
52927;BME280;40783;49.710;8.842;2022-07-23T07:56:13;99253.97;;;21.83;87.92
52927;BME280;40783;49.710;8.842;2022-07-23T07:58:39;99257.75;;;21.44;88.21
52927;BME280;40783;49.710;8.842;2022-07-23T08:01:04;99262.44;;;21.74;88.79
52927;BME280;40783;49.710;8.842;2022-07-23T08:03:33;99260.91;;;21.78;87.17
52927;BME280;40783;49.710;8.842;2022-07-23T08:05:58;99248.38;;;22.08;87.92
52927;BME280;40783;49.710;8.842;2022-07-23T08:08:26;99253.97;;;21.83;87.41
52927;BME280;40783;49.710;8.842;2022-07-23T08:10:51;99260.78;;;21.73;88.51
52927;BME280;40783;49.710;8.842;2022-07-23T08:13:17;99267.06;;;22.35;86.06
52927;BME280;40783;49.710;8.842;2022-07-23T08:15:44;99273.16;;;22.49;83.17
52927;BME280;40783;49.710;8.842;2022-07-23T08:18:10;99280.94;;;23.23;81.01
52927;BME280;40783;49.710;8.842;2022-07-23T08:20:35;99288.41;;;24.22;76.72
52927;BME280;40783;49.710;8.842;2022-07-23T08:23:08;99284.47;;;25.15;71.50
52927;BME280;40783;49.710;8.842;2022-07-23T08:25:39;99285.09;;;24.83;74.02
52927;BME280;40783;49.710;8.842;2022-07-23T08:28:08;99291.38;;;25.00;73.82
52927;BME280;40783;49.710;8.842;2022-07-23T08:30:37;99293.72;;;25.48;72.76
52927;BME280;40783;49.710;8.842;2022-07-23T08:33:14;99296.25;;;24.64;74.11
52927;BME280;40783;49.710;8.842;2022-07-23T08:35:44;99299.69;;;23.84;76.17
52927;BME280;40783;49.710;8.842;2022-07-23T08:38:13;99293.91;;;24.56;75.86
52927;BME280;40783;49.710;8.842;2022-07-23T08:40:46;99295.88;;;24.43;75.53
52927;BME280;40783;49.710;8.842;2022-07-23T08:43:25;99299.53;;;24.32;75.24
52927;BME280;40783;49.710;8.842;2022-07-23T08:45:54;99292.31;;;24.26;73.81
52927;BME280;40783;49.710;8.842;2022-07-23T08:48:24;99294.59;;;23.23;77.83
52927;BME280;40783;49.710;8.842;2022-07-23T08:50:52;99290.75;;;23.01;79.33
52927;BME280;40783;49.710;8.842;2022-07-23T08:53:21;99295.28;;;23.31;78.48
52927;BME280;40783;49.710;8.842;2022-07-23T08:55:53;99280.56;;;23.32;78.37
52927;BME280;40783;49.710;8.842;2022-07-23T08:58:20;99283.28;;;23.20;79.07
52927;BME280;40783;49.710;8.842;2022-07-23T09:00:46;99285.88;;;23.50;77.56
52927;BME280;40783;49.710;8.842;2022-07-23T09:03:33;99284.84;;;23.27;78.20
52927;BME280;40783;49.710;8.842;2022-07-23T09:05:59;99290.72;;;23.72;79.82
52927;BME280;40783;49.710;8.842;2022-07-23T09:08:40;99288.38;;;23.52;76.43
52927;BME280;40783;49.710;8.842;2022-07-23T09:11:11;99288.84;;;23.90;77.54
52927;BME280;40783;49.710;8.842;2022-07-23T09:19:04;99290.34;;;24.09;74.97
52927;BME280;40783;49.710;8.842;2022-07-23T09:21:40;99277.13;;;24.18;73.84
52927;BME280;40783;49.710;8.842;2022-07-23T09:24:11;99286.25;;;24.24;75.17
